Time;durP1;ratioP1;P1;durP2;ratioP2;P2;SDS_P1;SDS_P2;PMS_P1;PMS_P2;Temp;Humidity;BMP_temperature;BMP_pressure;BME280_temperature;BME280_humidity;BME280_pressure;Samples;Min_cycle;Max_cycle;Signal;HPM_P1;HPM_P2
2021/09/22 04:06:34;;;;;;;;;21.00;16.75;;;;;;;;6459013;46;9075;-61
2021/09/22 04:12:37;;;;;;;;;17.50;17.50;;;;;;;;6491320;39;9003;-62
2021/09/22 04:52:15;;;;;;;;;18.25;16.75;;;;;;;;6495078;39;9021;-63
2021/09/22 04:58:36;;;;;;;;;17.25;15.25;;;;;;;;6491657;39;9759;-62
2021/09/22 05:04:59;;;;;;;;;17.25;17.25;;;;;;;;6492467;46;8981;-63
2021/09/22 05:11:22;;;;;;;;;23.25;17.50;;;;;;;;6492244;39;8988;-63
2021/09/22 05:17:43;;;;;;;;;15.00;13.00;;;;;;;;6491877;39;9567;-63
2021/09/22 05:24:24;;;;;;;;;17.75;15.50;;;;;;;;6487300;46;9019;-63
2021/09/22 05:30:46;;;;;;;;;14.75;14.75;;;;;;;;6491886;46;8899;-64
2021/09/22 05:37:07;;;;;;;;;16.67;15.33;;;;;;;;6490784;46;9008;-62
2021/09/22 05:43:29;;;;;;;;;22.33;17.33;;;;;;;;6490004;46;8974;-61
2021/09/22 05:49:51;;;;;;;;;18.00;17.00;;;;;;;;6489930;39;9014;-62
2021/09/22 05:56:16;;;;;;;;;16.33;13.33;;;;;;;;6491161;39;8903;-61
2021/09/22 06:02:49;;;;;;;;;13.67;13.67;;;;;;;;6490897;39;9722;-63
2021/09/22 06:09:30;;;;;;;;;14.00;14.00;;;;;;;;6488903;46;8914;-61
2021/09/22 06:15:52;;;;;;;;;25.33;20.67;;;;;;;;6490659;31;8965;-62
2021/09/22 06:22:00;;;;;;;;;16.00;13.67;;;;;;;;6490925;31;8946;-60
2021/09/22 06:28:19;;;;;;;;;26.25;22.50;;;;;;;;6490264;46;8941;-60
2021/09/22 06:34:22;;;;;;;;;18.00;18.00;;;;;;;;6490536;31;8949;-60
2021/09/22 06:40:26;;;;;;;;;27.50;21.25;;;;;;;;6490681;39;9153;-62
2021/09/22 06:46:33;;;;;;;;;23.00;17.33;;;;;;;;6488982;39;8988;-63
2021/09/22 06:52:37;;;;;;;;;20.67;19.67;;;;;;;;6486594;31;8937;-62
2021/09/22 06:58:40;;;;;;;;;20.00;17.33;;;;;;;;6490378;31;9651;-60
2021/09/22 07:04:44;;;;;;;;;24.00;23.00;;;;;;;;6489777;46;8985;-61
2021/09/22 07:10:51;;;;;;;;;23.25;23.25;;;;;;;;6491035;39;8980;-60
2021/09/22 07:16:58;;;;;;;;;17.67;16.33;;;;;;;;6489393;39;8954;-62
2021/09/22 07:23:13;;;;;;;;;20.00;18.00;;;;;;;;6490362;39;9011;-60
2021/09/22 07:29:16;;;;;;;;;25.33;23.67;;;;;;;;6489799;39;8968;-61
2021/09/22 07:35:26;;;;;;;;;22.67;21.67;;;;;;;;6484430;46;8918;-60
2021/09/22 07:41:31;;;;;;;;;47.00;39.00;;;;;;;;6489452;31;9056;-61
2021/09/22 07:47:36;;;;;;;;;33.75;30.00;;;;;;;;6487891;39;9625;-60
2021/09/22 07:53:40;;;;;;;;;26.33;25.33;;;;;;;;6488605;39;9005;-60
2021/09/22 07:59:43;;;;;;;;;32.00;30.00;;;;;;;;6488414;39;8938;-61
2021/09/22 08:05:45;;;;;;;;;27.67;24.67;;;;;;;;6489567;31;9023;-61
2021/09/22 08:11:48;;;;;;;;;26.50;25.00;;;;;;;;6486576;46;8941;-61
2021/09/22 08:18:08;;;;;;;;;9.67;8.67;;;;;;;;6485432;47;9008;-61
2021/09/22 08:24:11;;;;;;;;;24.00;21.33;;;;;;;;6487288;39;9029;-62
2021/09/22 08:30:14;;;;;;;;;22.67;21.33;;;;;;;;6486643;39;8953;-60
2021/09/22 08:36:17;;;;;;;;;18.67;18.67;;;;;;;;6487089;31;8961;-61
2021/09/22 08:42:19;;;;;;;;;14.33;13.00;;;;;;;;6486991;39;8997;-61
2021/09/22 08:48:25;;;;;;;;;15.67;15.00;;;;;;;;6486335;31;8957;-60
2021/09/22 08:54:29;;;;;;;;;17.33;16.67;;;;;;;;6488004;39;8957;-61
2021/09/22 09:00:40;;;;;;;;;18.33;15.67;;;;;;;;6485779;46;9096;-62
2021/09/22 09:06:46;;;;;;;;;11.67;11.67;;;;;;;;6486344;39;9001;-62
2021/09/22 09:13:02;;;;;;;;;15.67;15.67;;;;;;;;6487610;39;9021;-62
2021/09/22 09:19:11;;;;;;;;;16.67;16.67;;;;;;;;6488178;31;8962;-62
2021/09/22 09:25:22;;;;;;;;;13.33;13.33;;;;;;;;6489857;39;9061;-61
2021/09/22 09:31:33;;;;;;;;;14.33;14.00;;;;;;;;6487598;46;8941;-63
2021/09/22 09:37:40;;;;;;;;;17.00;15.67;;;;;;;;6488727;39;9017;-62
2021/09/22 09:43:48;;;;;;;;;16.00;16.00;;;;;;;;6488020;31;8957;-62
2021/09/22 09:49:51;;;;;;;;;12.67;12.67;;;;;;;;6488984;39;9068;-61
2021/09/22 09:56:04;;;;;;;;;13.00;12.00;;;;;;;;6488338;46;8999;-63
2021/09/22 10:02:24;;;;;;;;;19.00;19.00;;;;;;;;6487670;39;9100;-62
2021/09/22 10:08:31;;;;;;;;;15.00;14.67;;;;;;;;6489123;31;10061;-62
2021/09/22 10:14:33;;;;;;;;;17.67;17.67;;;;;;;;6487926;39;8966;-62
2021/09/22 10:20:39;;;;;;;;;15.33;15.33;;;;;;;;6471019;31;9004;-63
2021/09/22 10:26:52;;;;;;;;;18.00;14.67;;;;;;;;6487237;31;8997;-61
2021/09/22 10:32:59;;;;;;;;;15.67;15.33;;;;;;;;6485602;39;8957;-63
2021/09/22 10:39:03;;;;;;;;;15.33;13.00;;;;;;;;6488517;31;8937;-61
2021/09/22 10:45:21;;;;;;;;;12.33;12.33;;;;;;;;6487531;31;8969;-62
2021/09/22 10:51:41;;;;;;;;;13.00;12.33;;;;;;;;6489616;39;9038;-61
2021/09/22 10:58:08;;;;;;;;;19.67;16.33;;;;;;;;6488937;39;8891;-62
2021/09/22 11:04:13;;;;;;;;;14.33;14.33;;;;;;;;6487698;46;8883;-61
2021/09/22 11:10:44;;;;;;;;;14.33;11.67;;;;;;;;6489758;39;8903;-60
2021/09/22 11:17:08;;;;;;;;;19.33;17.00;;;;;;;;6491251;39;8937;-61
2021/09/22 11:23:12;;;;;;;;;31.33;29.67;;;;;;;;6492404;31;9102;-62
2021/09/22 11:29:29;;;;;;;;;72.25;58.50;;;;;;;;6490179;39;9602;-61
2021/09/22 11:35:32;;;;;;;;;71.25;55.00;;;;;;;;6491080;39;9499;-60
2021/09/22 11:41:45;;;;;;;;;37.00;34.33;;;;;;;;6491140;31;9017;-61
2021/09/22 11:47:49;;;;;;;;;33.33;32.33;;;;;;;;6491210;39;8937;-63
2021/09/22 11:53:52;;;;;;;;;23.67;23.33;;;;;;;;6490004;39;8948;-61
2021/09/22 11:59:56;;;;;;;;;17.00;16.67;;;;;;;;6490865;39;8898;-61
2021/09/22 12:06:11;;;;;;;;;22.00;20.00;;;;;;;;6491245;31;8942;-60
2021/09/22 12:12:20;;;;;;;;;13.00;11.33;;;;;;;;6489972;47;8983;-61
2021/09/22 12:18:26;;;;;;;;;10.33;10.33;;;;;;;;6491229;47;8871;-60
2021/09/22 12:24:33;;;;;;;;;15.00;15.00;;;;;;;;6490457;31;9553;-61
2021/09/22 12:30:38;;;;;;;;;10.33;10.33;;;;;;;;6490310;39;8875;-61
2021/09/22 12:36:46;;;;;;;;;15.67;13.33;;;;;;;;6491632;31;9580;-63
2021/09/22 12:42:57;;;;;;;;;14.33;13.67;;;;;;;;6490236;39;8995;-62
2021/09/22 12:49:19;;;;;;;;;13.33;13.33;;;;;;;;6491441;46;8899;-60
2021/09/22 12:55:30;;;;;;;;;11.67;10.00;;;;;;;;6492065;31;9036;-62
2021/09/22 13:01:34;;;;;;;;;11.00;9.00;;;;;;;;6491959;46;8875;-60
2021/09/22 13:07:38;;;;;;;;;10.67;9.00;;;;;;;;6491819;46;8870;-61
2021/09/22 13:13:49;;;;;;;;;11.67;11.67;;;;;;;;6491766;46;8883;-60
2021/09/22 13:19:55;;;;;;;;;11.00;11.00;;;;;;;;6492131;46;8902;-61
2021/09/22 13:26:01;;;;;;;;;11.00;11.00;;;;;;;;6492187;39;8875;-61
2021/09/22 13:32:18;;;;;;;;;13.00;13.00;;;;;;;;6493603;31;8836;-61
2021/09/22 13:38:22;;;;;;;;;12.00;11.00;;;;;;;;6491713;31;8879;-61
2021/09/22 13:44:24;;;;;;;;;30.00;27.67;;;;;;;;6491820;39;9567;-62
2021/09/22 13:50:31;;;;;;;;;11.33;10.33;;;;;;;;6492607;39;8943;-61
2021/09/22 13:56:34;;;;;;;;;15.33;13.00;;;;;;;;6488782;39;8875;-60
2021/09/22 14:02:38;;;;;;;;;10.67;10.67;;;;;;;;6491711;39;9926;-61
2021/09/22 14:08:41;;;;;;;;;13.00;13.00;;;;;;;;6491259;39;8941;-62
2021/09/22 14:14:44;;;;;;;;;14.33;11.67;;;;;;;;6492225;46;8875;-63
2021/09/22 14:20:52;;;;;;;;;13.00;13.00;;;;;;;;6491908;46;8899;-61
2021/09/22 14:26:54;;;;;;;;;12.67;11.33;;;;;;;;6491912;46;8978;-61
2021/09/22 14:33:00;;;;;;;;;15.00;13.33;;;;;;;;6493135;39;8889;-61
2021/09/22 14:39:07;;;;;;;;;15.33;15.00;;;;;;;;6491155;31;8939;-62
2021/09/22 14:45:36;;;;;;;;;14.33;14.33;;;;;;;;6492853;39;8871;-62
2021/09/22 14:51:41;;;;;;;;;16.00;16.00;;;;;;;;6492020;31;9097;-62
2021/09/22 14:57:47;;;;;;;;;15.00;14.67;;;;;;;;6492004;39;8974;-61
2021/09/22 15:03:51;;;;;;;;;14.67;13.67;;;;;;;;6492387;46;8945;-62
2021/09/22 15:09:56;;;;;;;;;15.00;15.00;;;;;;;;6490894;46;8879;-61
2021/09/22 15:16:00;;;;;;;;;14.33;11.67;;;;;;;;6491948;39;9450;-60
2021/09/22 15:22:04;;;;;;;;;18.00;15.67;;;;;;;;6491954;31;9658;-63
2021/09/22 15:28:11;;;;;;;;;13.00;9.67;;;;;;;;6491348;39;8970;-61
2021/09/22 15:34:16;;;;;;;;;11.33;11.33;;;;;;;;6492034;39;8878;-60
2021/09/22 15:40:23;;;;;;;;;13.67;13.67;;;;;;;;6491713;39;8931;-61
2021/09/22 15:46:28;;;;;;;;;16.33;16.33;;;;;;;;6492483;46;8840;-62
2021/09/22 15:52:30;;;;;;;;;19.00;16.33;;;;;;;;6491972;39;8966;-62
2021/09/22 15:58:34;;;;;;;;;19.67;18.33;;;;;;;;6491226;39;8982;-61
2021/09/22 16:04:37;;;;;;;;;12.00;11.00;;;;;;;;6491652;46;8883;-61
2021/09/22 16:10:40;;;;;;;;;14.67;14.33;;;;;;;;6492164;39;8867;-62
2021/09/22 16:16:44;;;;;;;;;13.50;12.50;;;;;;;;6492343;39;8831;-60
2021/09/22 16:22:52;;;;;;;;;17.00;15.67;;;;;;;;6491923;39;8891;-61
2021/09/22 16:28:58;;;;;;;;;12.00;11.00;;;;;;;;6492819;46;8870;-63
2021/09/22 16:35:04;;;;;;;;;19.67;19.67;;;;;;;;6493401;46;9056;-61
2021/09/22 16:41:08;;;;;;;;;18.67;17.33;;;;;;;;6493390;39;8926;-62
2021/09/22 16:47:11;;;;;;;;;17.50;17.50;;;;;;;;6493566;46;9024;-61
2021/09/22 16:53:14;;;;;;;;;18.33;18.33;;;;;;;;6491945;39;8865;-62
2021/09/22 16:59:20;;;;;;;;;17.67;17.67;;;;;;;;6490713;46;8941;-61
2021/09/22 17:05:22;;;;;;;;;15.33;15.33;;;;;;;;6492472;39;8874;-62
2021/09/22 17:11:28;;;;;;;;;18.00;16.00;;;;;;;;6492147;31;8878;-61
2021/09/22 17:17:32;;;;;;;;;21.00;21.00;;;;;;;;6492003;39;8892;-62
2021/09/22 17:23:35;;;;;;;;;17.00;17.00;;;;;;;;6491348;46;8941;-63
2021/09/22 17:29:39;;;;;;;;;21.00;21.00;;;;;;;;6491343;39;9488;-61
2021/09/22 17:35:41;;;;;;;;;18.50;16.25;;;;;;;;6492118;39;8874;-62
2021/09/22 17:41:45;;;;;;;;;24.75;22.50;;;;;;;;6490677;39;9015;-61
2021/09/22 17:47:53;;;;;;;;;25.25;24.75;;;;;;;;6490999;46;8917;-61
2021/09/22 17:54:01;;;;;;;;;23.75;21.75;;;;;;;;6490709;46;8945;-61
2021/09/22 18:00:10;;;;;;;;;26.50;23.00;;;;;;;;6491007;46;8914;-62
2021/09/22 18:06:13;;;;;;;;;22.75;22.00;;;;;;;;6491617;31;8896;-62
2021/09/22 18:12:17;;;;;;;;;25.50;22.00;;;;;;;;6518108;36;8961;-61
2021/09/22 18:18:20;;;;;;;;;29.00;26.75;;;;;;;;6491568;46;8972;-62
2021/09/22 18:24:22;;;;;;;;;36.75;32.25;;;;;;;;6490976;39;9048;-62
2021/09/22 18:30:26;;;;;;;;;32.75;32.75;;;;;;;;6490234;31;8973;-61
2021/09/22 18:36:30;;;;;;;;;31.75;30.50;;;;;;;;6490591;39;8945;-63
2021/09/22 18:42:33;;;;;;;;;20.75;19.75;;;;;;;;6490288;39;9051;-62
2021/09/22 18:48:37;;;;;;;;;23.00;21.50;;;;;;;;6490776;39;8954;-60
2021/09/22 18:54:40;;;;;;;;;19.50;18.25;;;;;;;;6489712;46;8929;-60
2021/09/22 19:00:44;;;;;;;;;20.00;18.25;;;;;;;;6491340;39;9605;-60
2021/09/22 19:06:47;;;;;;;;;20.75;19.00;;;;;;;;6490589;46;8941;-61
2021/09/22 19:12:50;;;;;;;;;20.50;18.50;;;;;;;;6491103;31;8949;-62
2021/09/22 19:18:55;;;;;;;;;22.25;19.75;;;;;;;;6490438;46;8978;-61
2021/09/22 19:25:00;;;;;;;;;19.25;18.50;;;;;;;;6491088;39;9722;-61
2021/09/22 19:31:03;;;;;;;;;20.75;19.00;;;;;;;;6490715;39;8914;-62
2021/09/22 19:37:05;;;;;;;;;26.25;19.50;;;;;;;;6489969;39;8937;-60
2021/09/22 19:43:09;;;;;;;;;23.50;20.00;;;;;;;;6490407;39;8986;-62
2021/09/22 19:49:12;;;;;;;;;18.75;16.25;;;;;;;;6491001;39;8949;-61
2021/09/22 19:55:15;;;;;;;;;17.25;12.50;;;;;;;;6490434;31;9064;-62
2021/09/22 20:01:18;;;;;;;;;20.00;18.25;;;;;;;;6490596;39;9046;-61
2021/09/22 20:07:21;;;;;;;;;21.75;20.25;;;;;;;;6489833;46;8973;-61
2021/09/22 20:13:25;;;;;;;;;20.25;16.50;;;;;;;;6489349;39;8953;-60
2021/09/22 20:19:28;;;;;;;;;25.00;23.50;;;;;;;;6490367;47;9064;-60
2021/09/22 20:25:37;;;;;;;;;21.00;19.50;;;;;;;;6489668;47;8968;-61
2021/09/22 20:31:42;;;;;;;;;20.25;16.75;;;;;;;;6490615;39;8898;-62
2021/09/22 20:37:47;;;;;;;;;23.75;19.75;;;;;;;;6489740;39;8996;-62
2021/09/22 20:43:51;;;;;;;;;20.25;19.50;;;;;;;;6489288;47;8946;-61
2021/09/22 20:49:56;;;;;;;;;21.50;20.00;;;;;;;;6489878;39;9064;-62
2021/09/22 20:55:58;;;;;;;;;22.50;19.25;;;;;;;;6489463;31;9565;-61
2021/09/22 21:02:00;;;;;;;;;21.50;20.00;;;;;;;;6489634;39;8953;-61
2021/09/22 21:08:04;;;;;;;;;18.25;18.00;;;;;;;;6490306;39;9554;-61
2021/09/22 21:14:08;;;;;;;;;24.25;21.50;;;;;;;;6491878;39;8942;-61
2021/09/22 21:20:11;;;;;;;;;23.25;23.25;;;;;;;;6492033;39;8970;-61
2021/09/22 21:26:14;;;;;;;;;15.25;15.25;;;;;;;;6491268;46;9057;-61
2021/09/22 21:32:21;;;;;;;;;20.25;20.25;;;;;;;;6491824;31;9052;-61
2021/09/22 21:38:24;;;;;;;;;19.00;18.00;;;;;;;;6490768;46;9073;-60
2021/09/22 21:44:26;;;;;;;;;24.00;24.00;;;;;;;;6489887;39;9005;-61
2021/09/22 21:50:29;;;;;;;;;21.50;19.50;;;;;;;;6490624;39;8988;-61
2021/09/22 21:56:33;;;;;;;;;21.25;21.25;;;;;;;;6490201;31;9045;-61
2021/09/22 22:02:37;;;;;;;;;22.25;20.50;;;;;;;;6490002;39;9551;-62
2021/09/22 22:08:44;;;;;;;;;20.00;20.00;;;;;;;;6490455;39;8918;-61
2021/09/22 22:14:48;;;;;;;;;24.50;21.25;;;;;;;;6490587;31;8968;-61
2021/09/22 22:20:51;;;;;;;;;24.25;24.25;;;;;;;;6490920;39;8980;-61
2021/09/22 22:26:56;;;;;;;;;20.50;19.50;;;;;;;;6489618;31;8979;-61
2021/09/22 22:32:58;;;;;;;;;22.75;20.75;;;;;;;;6490628;39;9613;-61
2021/09/22 22:39:02;;;;;;;;;22.00;21.00;;;;;;;;6489863;39;9003;-61
2021/09/22 22:45:08;;;;;;;;;25.25;22.75;;;;;;;;6490364;31;8965;-60
2021/09/22 22:51:10;;;;;;;;;22.75;19.75;;;;;;;;6490448;46;9086;-61
2021/09/22 22:57:14;;;;;;;;;20.25;16.75;;;;;;;;6490043;39;9565;-62
2021/09/22 23:03:16;;;;;;;;;20.50;19.75;;;;;;;;6488961;46;8949;-62
2021/09/22 23:09:20;;;;;;;;;23.50;22.25;;;;;;;;6490225;39;9022;-61
2021/09/22 23:15:34;;;;;;;;;23.50;22.25;;;;;;;;6489447;46;8949;-61
2021/09/22 23:28:10;;;;;;;;;19.75;19.75;;;;;;;;6514497;36;9007;-61
2021/09/22 23:34:14;;;;;;;;;21.50;19.50;;;;;;;;6489195;46;9148;-61
2021/09/22 23:40:16;;;;;;;;;24.50;21.50;;;;;;;;6489953;39;9032;-61
2021/09/22 23:46:19;;;;;;;;;25.25;22.75;;;;;;;;6489910;39;8930;-61
2021/09/22 23:52:22;;;;;;;;;30.25;22.00;;;;;;;;6489227;39;9028;-60
2021/09/22 23:58:28;;;;;;;;;23.25;20.00;;;;;;;;6489411;39;8941;-62
